Time;durP1;ratioP1;P1;durP2;ratioP2;P2;SDS_P1;SDS_P2;PMS_P1;PMS_P2;Temp;Humidity;BMP_temperature;BMP_pressure;BME280_temperature;BME280_humidity;BME280_pressure;Samples;Min_cycle;Max_cycle;Signal;HPM_P1;HPM_P2
2023/04/28 00:01:43;;;;;;;12.55;6.78;;;12.00;99.90;;;11.17;100.00;97154.47;4915789;29;20424;-78
2023/04/28 00:04:09;;;;;;;14.05;6.72;;;12.00;99.90;;;11.22;100.00;97170.38;4918034;29;20492;-78
2023/04/28 00:06:36;;;;;;;13.27;7.07;;;12.00;99.90;;;11.27;100.00;97166.97;4915231;29;20500;-77
2023/04/28 00:09:02;;;;;;;16.38;7.10;;;12.10;99.90;;;11.28;100.00;97150.78;4915091;29;20424;-77
2023/04/28 00:11:28;;;;;;;12.13;6.65;;;12.10;99.90;;;11.28;100.00;97150.00;4915097;29;20413;-77
2023/04/28 00:13:55;;;;;;;14.63;7.10;;;12.10;99.90;;;11.36;100.00;97152.91;4915223;29;20899;-77
2023/04/28 00:16:21;;;;;;;13.77;6.63;;;12.20;99.90;;;11.36;100.00;97150.28;4915004;29;20413;-77
2023/04/28 00:18:47;;;;;;;18.00;6.70;;;12.20;99.90;;;11.34;100.00;97149.75;4915285;29;20435;-77
2023/04/28 00:21:13;;;;;;;11.18;6.10;;;12.20;99.90;;;11.32;100.00;97143.91;4914003;29;20417;-77
2023/04/28 00:23:39;;;;;;;12.45;6.00;;;12.20;99.90;;;11.39;100.00;97141.00;4915071;29;20843;-77
2023/04/28 00:26:05;;;;;;;10.37;6.40;;;12.20;99.90;;;11.41;100.00;97144.19;4914910;29;20420;-77
2023/04/28 00:28:30;;;;;;;12.32;6.13;;;12.20;99.90;;;11.43;100.00;97142.06;4915098;29;20492;-77
2023/04/28 00:30:58;;;;;;;11.90;6.15;;;12.20;99.90;;;11.45;100.00;97140.75;4914949;29;20454;-77
2023/04/28 00:33:23;;;;;;;9.18;5.75;;;12.30;99.90;;;11.47;100.00;97130.69;4914951;29;20856;-77
2023/04/28 00:35:57;;;;;;;9.33;5.63;;;12.30;99.90;;;11.47;100.00;97130.69;4914731;29;20453;-77
2023/04/28 00:38:24;;;;;;;14.73;5.30;;;12.30;99.90;;;11.45;100.00;97138.09;4932529;23;20904;-73
2023/04/28 00:40:50;;;;;;;10.82;5.28;;;12.30;99.90;;;11.43;100.00;97129.59;4913156;29;20500;-73
2023/04/28 00:43:16;;;;;;;9.87;5.33;;;12.30;99.90;;;11.43;100.00;97128.81;4917927;29;20434;-73
2023/04/28 00:45:41;;;;;;;8.23;5.10;;;12.20;99.90;;;11.43;100.00;97120.88;4926430;29;20820;-73
2023/04/28 00:48:09;;;;;;;9.32;5.07;;;12.30;99.90;;;11.44;100.00;97111.84;4914509;29;20409;-73
2023/04/28 00:50:36;;;;;;;9.90;4.90;;;12.30;99.90;;;11.41;100.00;97117.69;4929006;29;20428;-73
2023/04/28 00:53:02;;;;;;;8.40;5.43;;;12.20;99.90;;;11.39;100.00;97125.91;4914671;29;20840;-73
2023/04/28 00:55:31;;;;;;;9.32;4.82;;;12.20;99.90;;;11.38;100.00;97129.59;4928822;29;20421;-73
2023/04/28 00:57:58;;;;;;;13.05;4.95;;;12.20;99.90;;;11.37;100.00;97124.56;4914546;29;20912;-73
2023/04/28 01:00:24;;;;;;;7.80;4.60;;;12.20;99.90;;;11.33;100.00;97116.38;4928933;29;20424;-73
2023/04/28 01:02:52;;;;;;;9.57;4.78;;;12.20;99.90;;;11.30;100.00;97113.41;4916020;29;20429;-73
2023/04/28 01:05:20;;;;;;;9.23;4.82;;;12.10;99.90;;;11.28;100.00;97112.91;4918113;29;20472;-73
2023/04/28 01:07:45;;;;;;;10.05;4.93;;;12.10;99.90;;;11.26;100.00;97099.91;4918291;29;20445;-73
2023/04/28 01:10:11;;;;;;;10.38;4.68;;;12.10;99.90;;;11.23;100.00;97106.53;4915716;29;20513;-73
2023/04/28 01:12:37;;;;;;;9.68;4.93;;;12.10;99.90;;;11.20;100.00;97112.34;4928979;29;20417;-73
2023/04/28 01:15:05;;;;;;;9.37;5.23;;;12.00;99.90;;;11.18;100.00;97109.16;4913965;29;20424;-74
2023/04/28 01:17:31;;;;;;;9.90;5.05;;;12.00;99.90;;;11.16;100.00;97092.75;4914636;29;20401;-73
2023/04/28 01:19:57;;;;;;;10.80;4.88;;;12.00;99.90;;;11.16;100.00;97098.03;4914214;29;20508;-74
2023/04/28 01:22:24;;;;;;;9.20;4.90;;;12.00;99.90;;;11.15;100.00;97093.78;4914467;29;20421;-74
2023/04/28 01:24:51;;;;;;;8.95;4.82;;;12.00;99.90;;;11.18;100.00;97082.69;4914290;29;20495;-73
2023/04/28 01:27:17;;;;;;;9.38;5.00;;;12.00;99.90;;;11.20;100.00;97080.53;4914040;29;20428;-73
2023/04/28 01:29:43;;;;;;;7.80;4.78;;;12.00;99.90;;;11.24;100.00;97080.84;4914294;29;20437;-73
2023/04/28 01:32:09;;;;;;;13.05;4.88;;;12.10;99.90;;;11.25;100.00;97082.44;4914132;29;20959;-73
2023/04/28 01:34:35;;;;;;;6.63;3.87;;;12.10;99.90;;;11.22;100.00;97073.13;4914097;29;20414;-73
2023/04/28 01:37:01;;;;;;;11.63;4.50;;;12.10;99.90;;;11.24;100.00;97070.22;4917346;29;20425;-73
2023/04/28 01:39:27;;;;;;;8.18;4.30;;;12.00;99.90;;;11.26;100.00;97078.72;4917711;29;20531;-73
2023/04/28 01:41:54;;;;;;;8.95;4.45;;;12.10;99.90;;;11.25;100.00;97069.19;4917645;29;20424;-73
2023/04/28 01:44:20;;;;;;;8.40;4.18;;;12.10;99.90;;;11.24;100.00;97071.03;4918691;29;20473;-79
2023/04/28 01:46:45;;;;;;;9.57;4.47;;;12.10;99.90;;;11.23;100.00;97073.94;4921650;29;20466;-73
2023/04/28 01:49:11;;;;;;;9.67;4.17;;;12.00;99.90;;;11.23;100.00;97071.28;4925321;29;20411;-73
2023/04/28 01:51:37;;;;;;;7.30;4.30;;;12.00;99.90;;;11.23;100.00;97066.78;4903883;29;20415;-73
2023/04/28 01:54:03;;;;;;;7.38;3.90;;;12.10;99.90;;;11.25;100.00;97061.22;4915799;29;20405;-73
2023/04/28 01:56:29;;;;;;;7.03;4.03;;;12.10;99.90;;;11.29;100.00;97061.47;4917321;29;20504;-74
2023/04/28 01:58:56;;;;;;;8.07;4.23;;;12.10;99.90;;;11.29;100.00;97064.13;4917743;29;20593;-73
2023/04/28 02:01:22;;;;;;;6.57;3.83;;;12.10;99.90;;;11.26;100.00;97062.81;4917375;29;20424;-73
2023/04/28 02:03:49;;;;;;;9.57;4.05;;;12.10;99.90;;;11.24;100.00;97059.63;4917482;29;20429;-73
2023/04/28 02:06:15;;;;;;;6.15;3.75;;;12.10;99.90;;;11.20;100.00;97062.00;4917336;29;20424;-73
2023/04/28 02:08:41;;;;;;;8.50;3.80;;;12.00;99.90;;;11.20;100.00;97047.97;4917442;29;20775;-73
2023/04/28 02:11:06;;;;;;;10.82;3.95;;;12.00;99.90;;;11.20;100.00;97048.75;4917397;29;20444;-73
2023/04/28 02:13:32;;;;;;;7.37;3.80;;;12.00;99.90;;;11.25;100.00;97035.53;4917348;29;20555;-73
2023/04/28 02:16:03;;;;;;;6.47;3.80;;;12.10;99.90;;;11.28;100.00;97036.06;4917288;29;20449;-73
2023/04/28 02:18:30;;;;;;;7.53;3.80;;;12.10;99.90;;;11.29;100.00;97037.63;4917214;29;20420;-73
2023/04/28 02:20:55;;;;;;;4.53;3.25;;;12.10;99.90;;;11.29;100.00;97048.22;4917179;29;20484;-73
2023/04/28 02:23:21;;;;;;;7.07;3.70;;;12.10;99.90;;;11.28;100.00;97049.31;4917054;29;20944;-73
2023/04/28 02:25:47;;;;;;;6.55;3.55;;;12.10;99.90;;;11.27;100.00;97045.88;4917074;29;20507;-73
2023/04/28 02:28:13;;;;;;;7.22;3.60;;;12.10;99.90;;;11.24;100.00;97041.88;4917109;29;20409;-73
2023/04/28 02:30:39;;;;;;;6.90;3.50;;;12.00;99.90;;;11.23;100.00;97042.16;4916980;29;20920;-75
2023/04/28 02:33:06;;;;;;;9.43;3.70;;;12.00;99.90;;;11.22;100.00;97044.00;4917037;29;20768;-74
2023/04/28 02:35:32;;;;;;;7.87;3.70;;;12.00;99.90;;;11.20;100.00;97032.84;4916733;29;20630;-74
2023/04/28 02:37:58;;;;;;;5.68;3.78;;;12.00;99.90;;;11.22;100.00;97030.75;4916919;29;20824;-74
2023/04/28 02:40:24;;;;;;;6.00;3.85;;;12.10;99.90;;;11.23;100.00;97024.41;4916698;29;20515;-73
2023/04/28 02:42:50;;;;;;;6.13;3.70;;;12.10;99.90;;;11.24;100.00;97033.94;4916850;29;20523;-74
2023/04/28 02:45:16;;;;;;;4.80;3.00;;;12.10;99.90;;;11.27;100.00;97037.94;4916715;29;20413;-73
2023/04/28 02:47:42;;;;;;;9.23;4.30;;;12.10;99.90;;;11.27;100.00;97037.13;4915615;29;20417;-73
2023/04/28 02:50:10;;;;;;;5.90;3.40;;;12.10;99.90;;;11.24;100.00;97033.13;4916673;29;20479;-73
2023/04/28 02:52:36;;;;;;;5.20;3.45;;;12.10;99.90;;;11.22;100.00;97038.69;4916634;29;20468;-73
2023/04/28 02:55:03;;;;;;;6.03;3.72;;;12.10;99.90;;;11.20;100.00;97040.03;4916341;29;20413;-73
2023/04/28 02:57:29;;;;;;;7.60;3.95;;;12.00;99.90;;;11.16;100.00;97045.06;4916605;29;20420;-73
2023/04/28 02:59:56;;;;;;;6.15;3.60;;;12.00;99.90;;;11.13;100.00;97045.56;4916530;29;20496;-73
2023/04/28 03:02:21;;;;;;;8.63;4.07;;;12.00;99.90;;;11.08;100.00;97045.56;4916452;29;20436;-75
2023/04/28 03:04:47;;;;;;;4.75;3.78;;;11.90;99.90;;;11.02;100.00;97043.16;4916419;29;20417;-74
2023/04/28 03:07:15;;;;;;;5.65;4.05;;;11.80;99.90;;;10.97;100.00;97043.97;4916248;29;20433;-74
2023/04/28 03:09:40;;;;;;;4.65;3.45;;;11.80;99.90;;;10.98;100.00;97040.25;4916221;29;20926;-73
2023/04/28 03:12:06;;;;;;;5.72;3.70;;;11.80;99.90;;;10.98;100.00;97034.94;4916271;29;20414;-73
2023/04/28 03:14:32;;;;;;;7.63;4.03;;;11.80;99.90;;;10.97;100.00;97030.72;4916161;29;20982;-73
2023/04/28 03:16:58;;;;;;;6.32;4.30;;;11.80;99.90;;;10.94;100.00;97036.53;4916081;29;20473;-73
2023/04/28 03:19:25;;;;;;;6.05;4.07;;;11.80;99.90;;;10.92;100.00;97033.34;4916306;29;20439;-73
2023/04/28 03:21:51;;;;;;;6.82;4.30;;;11.80;99.90;;;10.92;100.00;97022.75;4916168;29;20413;-73
2023/04/28 03:24:19;;;;;;;6.15;4.05;;;11.80;99.90;;;10.92;100.00;97021.94;4916075;29;20457;-73
2023/04/28 03:26:44;;;;;;;8.45;4.20;;;11.80;99.90;;;10.91;100.00;97023.81;4915844;29;20896;-73
2023/04/28 03:29:10;;;;;;;5.93;3.95;;;11.80;99.90;;;10.92;100.00;97021.94;4915859;29;20568;-73
2023/04/28 03:31:36;;;;;;;4.22;3.83;;;11.80;99.90;;;10.92;100.00;97024.59;4930451;29;20417;-73
2023/04/28 03:34:03;;;;;;;5.60;4.00;;;11.80;99.90;;;10.94;100.00;97011.91;4915954;29;20414;-73
2023/04/28 03:36:29;;;;;;;6.30;4.28;;;11.80;99.90;;;10.94;100.00;97012.69;4915710;29;20516;-73
2023/04/28 03:38:55;;;;;;;5.80;3.90;;;11.80;99.90;;;10.95;100.00;97018.78;4915635;29;20994;-73
2023/04/28 03:41:22;;;;;;;6.20;4.40;;;11.80;99.90;;;10.95;100.00;97024.88;4915730;29;20414;-73
2023/04/28 03:43:48;;;;;;;8.73;4.10;;;11.80;99.90;;;10.92;100.00;97020.09;4915703;29;20428;-73
2023/04/28 03:46:14;;;;;;;5.45;3.92;;;11.80;99.90;;;10.91;100.00;97021.16;4915618;29;20508;-72
2023/04/28 03:48:39;;;;;;;5.30;4.03;;;11.80;99.90;;;10.90;100.00;97013.50;4915636;29;20425;-73
2023/04/28 03:51:05;;;;;;;5.93;4.40;;;11.80;99.90;;;10.91;100.00;97012.41;4915679;29;20416;-73
2023/04/28 03:53:31;;;;;;;5.13;4.05;;;11.80;99.90;;;10.90;100.00;97011.63;4898950;29;20411;-75
2023/04/28 03:55:57;;;;;;;4.63;3.60;;;11.80;99.90;;;10.90;100.00;97003.66;4900819;29;20504;-73
2023/04/28 03:58:25;;;;;;;6.10;3.88;;;11.80;99.90;;;10.91;100.00;97002.63;4914690;29;20418;-73
2023/04/28 04:00:51;;;;;;;6.45;4.18;;;11.80;99.90;;;10.92;100.00;97006.06;4914648;29;20412;-73
2023/04/28 04:03:17;;;;;;;6.00;3.70;;;11.80;99.90;;;10.93;100.00;97003.16;4915037;29;20436;-73
2023/04/28 04:05:43;;;;;;;6.55;4.07;;;11.80;99.90;;;10.92;100.00;97009.50;4915633;29;20410;-73
2023/04/28 04:08:09;;;;;;;5.80;4.10;;;11.80;99.90;;;10.93;100.00;97000.50;4914831;29;20500;-73
2023/04/28 04:10:35;;;;;;;5.05;3.85;;;11.80;99.90;;;10.96;100.00;97000.00;4913474;29;20413;-73
2023/04/28 04:13:01;;;;;;;5.00;3.87;;;11.80;99.90;;;10.96;100.00;96994.69;4914960;29;20496;-73
2023/04/28 04:15:29;;;;;;;4.82;3.95;;;11.80;99.90;;;10.99;100.00;96993.38;4914040;29;20417;-73
2023/04/28 04:17:55;;;;;;;10.27;4.53;;;11.80;99.90;;;10.99;100.00;96996.81;4928744;29;20943;-72
2023/04/28 04:20:21;;;;;;;5.15;4.30;;;11.90;99.90;;;11.03;100.00;96999.75;4908065;29;20409;-73
2023/04/28 04:22:47;;;;;;;7.30;4.18;;;11.90;99.90;;;11.04;100.00;96990.75;4909875;29;20482;-73
2023/04/28 04:25:13;;;;;;;6.10;3.90;;;11.90;99.90;;;11.06;100.00;96992.06;4913994;29;20501;-74
2023/04/28 04:27:39;;;;;;;5.13;3.67;;;11.90;99.90;;;11.06;100.00;96989.41;4929697;29;20425;-73
2023/04/28 04:30:07;;;;;;;6.78;4.18;;;11.90;99.90;;;11.11;100.00;96986.78;4915704;29;20520;-73
2023/04/28 04:32:34;;;;;;;8.70;4.18;;;11.90;99.90;;;11.14;100.00;96994.19;4915097;29;20511;-73
2023/04/28 04:35:00;;;;;;;4.53;3.88;;;12.00;99.90;;;11.18;100.00;96997.09;4917504;29;20472;-72
2023/04/28 04:37:26;;;;;;;5.70;3.90;;;12.00;99.90;;;11.20;100.00;96989.69;4920445;29;20444;-73
2023/04/28 04:39:52;;;;;;;4.83;4.17;;;12.00;99.90;;;11.24;100.00;96988.91;4920959;29;20441;-72
2023/04/28 04:42:18;;;;;;;9.70;4.47;;;12.10;99.90;;;11.25;100.00;96995.00;4915807;29;20459;-73
2023/04/28 04:44:44;;;;;;;6.18;4.28;;;12.10;99.90;;;11.29;100.00;96992.59;4915181;29;20413;-73
2023/04/28 04:47:10;;;;;;;4.55;4.10;;;12.10;99.90;;;11.29;100.00;96997.88;4914777;29;20780;-73
2023/04/28 04:49:37;;;;;;;8.27;4.60;;;12.10;99.90;;;11.31;100.00;96993.94;4914704;29;20497;-72
2023/04/28 04:52:05;;;;;;;6.30;4.57;;;12.10;99.90;;;11.37;100.00;96984.13;4914874;29;20441;-73
2023/04/28 04:54:31;;;;;;;5.90;4.40;;;12.20;99.90;;;11.36;100.00;96978.03;4914477;29;20401;-73
2023/04/28 04:56:57;;;;;;;6.35;3.90;;;12.20;99.90;;;11.37;100.00;96979.63;4914399;29;20756;-73
2023/04/28 04:59:23;;;;;;;5.38;4.30;;;12.20;99.90;;;11.43;100.00;96985.69;4914546;29;20416;-73
2023/04/28 05:01:49;;;;;;;5.90;4.57;;;12.20;99.90;;;11.38;100.00;96980.41;4914577;29;20935;-73
2023/04/28 05:04:15;;;;;;;7.28;4.78;;;12.20;99.90;;;11.28;100.00;96989.16;4914486;29;20432;-72
2023/04/28 05:06:43;;;;;;;10.30;5.90;;;12.10;99.90;;;11.18;100.00;96986.50;4927919;29;20773;-74
2023/04/28 05:09:08;;;;;;;8.02;5.43;;;12.00;99.90;;;11.12;100.00;96987.56;4912358;29;20409;-73
2023/04/28 05:11:34;;;;;;;8.20;5.38;;;11.90;99.90;;;11.04;100.00;96994.19;4906288;29;20533;-73
2023/04/28 05:14:00;;;;;;;9.73;6.20;;;11.80;99.90;;;10.95;100.00;96997.59;4912175;29;20429;-73
2023/04/28 05:16:26;;;;;;;9.48;5.80;;;11.80;99.90;;;10.89;100.00;96993.38;4909375;29;20826;-73
2023/04/28 05:18:56;;;;;;;8.88;5.85;;;11.70;99.90;;;10.85;100.00;96993.88;4911293;29;20409;-74
2023/04/28 05:21:24;;;;;;;10.03;6.50;;;11.70;99.90;;;10.86;100.00;96997.31;4928355;29;20929;-74
2023/04/28 05:23:52;;;;;;;9.02;6.40;;;11.70;99.90;;;10.85;100.00;97004.47;4911707;29;20461;-74
2023/04/28 05:26:18;;;;;;;10.55;6.70;;;11.70;99.90;;;10.86;100.00;96999.97;4913334;29;20420;-75
2023/04/28 05:28:44;;;;;;;11.18;6.55;;;11.70;99.90;;;10.88;100.00;96997.06;4913686;29;20409;-75
2023/04/28 05:31:10;;;;;;;12.27;7.05;;;11.70;99.90;;;10.85;100.00;96993.88;4913509;29;20425;-75
2023/04/28 05:33:36;;;;;;;10.45;7.25;;;11.70;99.90;;;10.83;100.00;96987.25;4908475;29;20411;-75
2023/04/28 05:36:02;;;;;;;10.27;6.57;;;11.70;99.90;;;10.85;100.00;96993.88;4913380;29;20459;-74
2023/04/28 05:38:28;;;;;;;13.75;7.60;;;11.70;99.90;;;10.89;100.00;96998.66;4910969;29;20409;-75
2023/04/28 05:40:55;;;;;;;12.85;7.65;;;11.70;99.90;;;10.92;100.00;96992.81;4910901;29;20417;-75
2023/04/28 05:43:21;;;;;;;10.67;7.20;;;11.70;99.90;;;10.95;100.00;96998.41;4910364;29;22066;-74
2023/04/28 05:45:47;;;;;;;15.95;7.78;;;11.80;99.90;;;10.97;100.00;96992.84;4922404;29;20421;-73
2023/04/28 05:48:13;;;;;;;21.65;9.75;;;11.80;99.90;;;10.98;100.00;96995.22;4900219;29;20461;-74
2023/04/28 05:50:38;;;;;;;16.85;9.40;;;11.80;99.90;;;10.98;100.00;96995.22;4906134;29;20517;-74
2023/04/28 05:53:06;;;;;;;14.27;8.00;;;11.80;99.90;;;11.02;100.00;96998.16;4909533;29;20496;-74
2023/04/28 05:55:32;;;;;;;16.45;8.90;;;11.80;99.90;;;11.09;100.00;96985.44;4913629;29;20488;-75
2023/04/28 05:58:00;;;;;;;16.25;9.38;;;11.90;99.90;;;11.11;100.00;96985.97;4911458;29;20807;-74
2023/04/28 06:00:26;;;;;;;17.75;9.10;;;11.90;99.90;;;11.12;100.00;96982.28;4907431;29;20411;-74
2023/04/28 06:02:52;;;;;;;14.80;8.93;;;11.90;99.90;;;11.08;100.00;96989.16;4908390;29;20517;-74
2023/04/28 06:05:18;;;;;;;20.80;9.70;;;11.90;99.90;;;11.01;100.00;96983.31;4908267;29;20434;-74
2023/04/28 06:07:44;;;;;;;17.65;9.80;;;11.80;99.90;;;11.05;100.00;96982.50;4904886;29;20417;-74
2023/04/28 06:10:10;;;;;;;17.90;9.82;;;11.80;99.90;;;11.03;100.00;96984.66;4913110;29;20422;-74
2023/04/28 06:12:36;;;;;;;21.50;10.95;;;11.90;99.90;;;10.99;100.00;96985.41;4909381;29;20411;-74
2023/04/28 06:15:05;;;;;;;19.60;10.20;;;11.80;99.90;;;10.98;100.00;96981.19;4894715;29;20438;-74
2023/04/28 06:17:32;;;;;;;24.55;11.35;;;11.80;99.90;;;10.99;100.00;96980.13;4894884;29;20470;-75
2023/04/28 06:19:58;;;;;;;22.37;10.20;;;11.80;99.90;;;10.95;100.00;96979.06;4894757;29;20418;-74
2023/04/28 06:22:24;;;;;;;22.40;9.70;;;11.80;99.90;;;10.94;100.00;96982.78;4896911;29;20423;-74
2023/04/28 06:24:50;;;;;;;21.30;10.38;;;11.80;99.90;;;10.96;100.00;96984.13;4899550;29;20430;-75
2023/04/28 06:27:16;;;;;;;26.60;11.88;;;11.80;99.90;;;10.94;100.00;96972.97;4908300;29;20411;-74
2023/04/28 06:29:42;;;;;;;27.63;11.67;;;11.70;99.90;;;10.97;100.00;96979.63;4925420;29;20417;-75
2023/04/28 06:32:09;;;;;;;25.65;11.63;;;11.80;99.90;;;10.99;100.00;96972.19;4915581;29;20424;-75
2023/04/28 06:34:36;;;;;;;26.48;11.93;;;11.80;99.90;;;11.04;100.00;96969.56;4916341;29;20406;-74
2023/04/28 06:37:02;;;;;;;26.77;12.65;;;11.80;99.90;;;11.10;100.00;96969.28;4916387;29;20416;-74
2023/04/28 06:39:28;;;;;;;22.23;11.45;;;11.90;99.90;;;11.15;100.00;96968.47;4916356;29;20903;-74
2023/04/28 06:41:53;;;;;;;23.02;10.30;;;11.90;99.90;;;11.23;100.00;96966.09;4916191;29;20428;-74
2023/04/28 06:44:19;;;;;;;24.33;11.45;;;12.00;99.90;;;11.32;100.00;96970.88;4916392;29;20432;-74
2023/04/28 06:46:47;;;;;;;26.23;10.93;;;12.10;99.90;;;11.32;100.00;96963.72;4914786;29;20523;-74
2023/04/28 06:49:15;;;;;;;22.73;11.00;;;12.10;99.90;;;11.34;100.00;96969.56;4913186;29;20425;-74
2023/04/28 06:51:41;;;;;;;19.27;10.32;;;12.10;99.90;;;11.36;100.00;96958.66;4904507;29;20901;-74
2023/04/28 06:54:06;;;;;;;18.40;9.68;;;12.10;99.90;;;11.43;100.00;96964.50;4897860;29;20411;-74
2023/04/28 06:56:34;;;;;;;18.03;9.13;;;12.20;99.90;;;11.48;100.00;96956.56;4897495;29;20449;-74
2023/04/28 06:59:00;;;;;;;22.13;9.52;;;12.30;99.90;;;11.51;100.00;96958.66;4897745;29;20944;-74
2023/04/28 07:01:26;;;;;;;16.33;8.82;;;12.30;99.90;;;11.59;100.00;96956.28;4902725;29;20417;-74
2023/04/28 07:03:52;;;;;;;17.67;9.30;;;12.30;99.90;;;11.61;100.00;96954.16;4930230;29;20428;-74
2023/04/28 07:06:19;;;;;;;15.32;8.40;;;12.40;99.90;;;11.62;100.00;96957.59;4908028;29;20498;-73
2023/04/28 07:08:45;;;;;;;12.23;7.30;;;12.30;99.90;;;11.57;100.00;96955.75;4908417;29;20761;-74
2023/04/28 07:11:11;;;;;;;14.02;7.70;;;12.30;99.90;;;11.62;100.00;96950.44;4917052;29;20476;-74
2023/04/28 07:13:37;;;;;;;11.60;7.53;;;12.40;99.90;;;11.63;100.00;96945.94;4914610;29;20508;-74
2023/04/28 07:16:03;;;;;;;13.27;7.72;;;12.30;99.90;;;11.64;100.00;96948.31;4908141;29;20432;-74
2023/04/28 07:18:30;;;;;;;16.63;7.95;;;12.40;99.90;;;11.72;100.00;96940.88;4916009;29;20484;-74
2023/04/28 07:20:55;;;;;;;10.32;6.18;;;12.40;99.90;;;11.72;100.00;96944.34;4915985;29;20525;-74
2023/04/28 07:23:23;;;;;;;11.90;6.40;;;12.50;99.90;;;11.76;100.00;96940.09;4916123;29;20516;-74
2023/04/28 07:25:49;;;;;;;12.10;6.70;;;12.50;99.90;;;11.78;100.00;96948.59;4915864;29;20560;-75
2023/04/28 07:28:15;;;;;;;10.85;6.03;;;12.50;99.90;;;11.83;100.00;96950.41;4915123;29;20417;-74
2023/04/28 07:30:40;;;;;;;13.25;6.20;;;12.60;99.90;;;11.91;100.00;96941.91;4916029;29;20457;-74
2023/04/28 07:33:06;;;;;;;11.88;5.90;;;12.60;99.90;;;11.90;100.00;96942.97;4915092;29;20456;-74
2023/04/28 07:35:32;;;;;;;11.50;6.45;;;12.60;99.90;;;12.00;100.00;96943.75;4915746;29;20417;-74
2023/04/28 07:37:58;;;;;;;10.75;5.85;;;12.70;99.90;;;12.01;100.00;96939.25;4916019;29;20409;-74
2023/04/28 07:40:26;;;;;;;11.93;6.10;;;12.70;99.90;;;11.95;100.00;96940.31;4914368;29;20425;-74
2023/04/28 07:42:51;;;;;;;7.85;5.60;;;12.70;99.90;;;12.03;100.00;96943.19;4915680;29;20424;-74
2023/04/28 07:45:17;;;;;;;9.20;5.37;;;12.70;99.90;;;12.01;100.00;96942.69;4915486;29;20903;-74
2023/04/28 07:47:43;;;;;;;8.98;5.50;;;12.70;99.90;;;12.12;100.00;96946.09;4915540;29;20417;-74
2023/04/28 07:50:10;;;;;;;13.15;7.03;;;12.80;99.90;;;12.05;100.00;96945.59;4915426;29;20436;-75
2023/04/28 07:52:36;;;;;;;13.27;6.35;;;12.80;99.90;;;11.97;100.00;96941.63;4915604;29;20417;-76
2023/04/28 07:55:03;;;;;;;13.30;6.20;;;12.70;99.90;;;11.92;100.00;96940.84;4915304;29;20451;-76
2023/04/28 07:57:30;;;;;;;14.30;6.88;;;12.70;99.90;;;11.91;100.00;96941.91;4915545;29;20484;-75
2023/04/28 07:59:56;;;;;;;16.73;7.80;;;12.70;99.90;;;11.87;100.00;96949.63;4915202;29;20424;-75
2023/04/28 08:02:22;;;;;;;20.00;7.63;;;12.60;99.90;;;11.80;100.00;96948.31;4915159;29;20413;-77
2023/04/28 08:04:48;;;;;;;23.13;8.45;;;12.60;99.90;;;11.76;100.00;96957.88;4915224;29;20425;-76
2023/04/28 08:07:14;;;;;;;26.50;7.93;;;12.50;99.90;;;11.65;100.00;96957.06;4915159;29;20413;-76
2023/04/28 08:09:42;;;;;;;22.98;8.68;;;12.40;99.90;;;11.64;100.00;96960.78;4915156;29;20930;-76
2023/04/28 08:12:08;;;;;;;30.27;9.55;;;12.40;99.90;;;11.57;100.00;96963.72;4916523;29;20417;-78
2023/04/28 08:14:36;;;;;;;26.50;10.63;;;12.30;99.90;;;11.61;100.00;96969.25;4915981;29;20409;-77
2023/04/28 08:17:02;;;;;;;24.98;9.65;;;12.40;99.90;;;11.56;100.00;96975.38;4915059;29;20425;-76
2023/04/28 08:19:27;;;;;;;24.73;10.23;;;12.30;99.90;;;11.61;100.00;96972.72;4915117;29;20844;-76
2023/04/28 08:21:53;;;;;;;21.75;9.32;;;12.40;99.90;;;11.64;100.00;96984.66;4914854;29;20421;-76
2023/04/28 08:24:19;;;;;;;26.80;9.60;;;12.40;99.90;;;11.64;100.00;96984.66;4914868;29;20429;-76
2023/04/28 08:26:45;;;;;;;27.13;9.75;;;12.40;99.90;;;11.64;100.00;96988.09;4914916;29;20417;-76
2023/04/28 08:29:11;;;;;;;33.15;12.00;;;12.40;99.90;;;11.71;100.00;96990.47;4915140;29;20448;-75
2023/04/28 08:31:39;;;;;;;29.55;10.93;;;12.50;99.90;;;11.75;100.00;96990.75;4914715;29;20420;-76
2023/04/28 08:34:04;;;;;;;35.17;11.02;;;12.50;99.90;;;11.74;100.00;96997.91;4914733;29;20907;-76
2023/04/28 08:36:32;;;;;;;30.77;11.30;;;12.50;99.90;;;11.78;100.00;96998.19;4914545;29;20441;-75
2023/04/28 08:39:00;;;;;;;32.80;9.25;;;12.60;99.90;;;11.87;100.00;97002.69;4914715;29;20856;-76
2023/04/28 08:41:28;;;;;;;31.38;10.70;;;12.60;99.90;;;11.98;100.00;97001.56;4914578;29;20416;-75
2023/04/28 08:43:55;;;;;;;24.23;8.63;;;12.70;99.90;;;12.11;100.00;96999.41;4914187;29;20425;-75
2023/04/28 08:46:22;;;;;;;27.85;8.82;;;12.80;99.90;;;12.17;100.00;97004.47;4929512;29;20421;-77
2023/04/28 08:48:56;;;;;;;34.00;9.02;;;12.90;99.90;;;12.23;100.00;97011.34;4914631;29;20529;-76
2023/04/28 08:51:31;;;;;;;26.90;8.52;;;13.00;99.90;;;12.28;100.00;97013.97;4914304;29;20401;-76
2023/04/28 08:54:03;;;;;;;27.45;8.48;;;13.00;99.90;;;12.30;100.00;97017.16;4914517;29;20476;-75
2023/04/28 08:56:32;;;;;;;21.95;7.68;;;13.10;99.90;;;12.34;100.00;97020.84;4914360;29;20445;-76
2023/04/28 08:59:03;;;;;;;22.07;7.50;;;13.10;99.90;;;12.39;100.00;97028.00;4914558;29;20435;-76
2023/04/28 09:01:29;;;;;;;21.48;7.28;;;13.20;99.90;;;12.46;100.00;97030.38;4914408;29;20443;-76
2023/04/28 09:03:59;;;;;;;24.98;8.75;;;13.20;99.90;;;12.47;100.00;97026.66;4914489;29;20421;-76
2023/04/28 09:06:25;;;;;;;16.67;7.15;;;13.30;99.90;;;12.48;100.00;97030.91;4914323;29;20403;-76
2023/04/28 09:08:51;;;;;;;24.87;9.13;;;13.20;99.90;;;12.47;100.00;97032.75;4914483;29;20413;-75
2023/04/28 09:11:18;;;;;;;26.27;8.45;;;13.20;99.90;;;12.48;100.00;97034.31;4914643;29;20416;-77
2023/04/28 09:13:44;;;;;;;20.90;7.65;;;13.20;99.90;;;12.54;100.00;97027.16;4914507;29;20413;-76
2023/04/28 09:16:12;;;;;;;17.55;6.57;;;13.30;99.90;;;12.57;100.00;97032.69;4913697;29;20424;-76
2023/04/28 09:18:38;;;;;;;22.88;8.30;;;13.40;99.90;;;12.57;100.00;97023.94;4914521;29;20425;-76
2023/04/28 09:21:08;;;;;;;20.45;7.68;;;13.40;99.90;;;12.57;100.00;97039.88;4914288;29;20413;-75
2023/04/28 09:23:46;;;;;;;21.38;8.27;;;13.30;99.90;;;12.52;100.00;97037.25;4913971;29;20429;-75
2023/04/28 09:26:11;;;;;;;19.67;8.20;;;13.30;99.90;;;12.56;100.00;97032.97;4914632;29;20811;-74
2023/04/28 09:28:37;;;;;;;25.60;9.48;;;13.30;99.90;;;12.61;100.00;97032.97;4914643;29;20429;-75
2023/04/28 09:31:03;;;;;;;22.52;8.85;;;13.40;99.90;;;12.72;100.00;97043.25;4919352;29;20479;-74
2023/04/28 09:33:29;;;;;;;25.85;9.48;;;13.40;99.90;;;12.76;100.00;97036.34;4915621;29;20464;-74
2023/04/28 09:35:55;;;;;;;17.88;8.07;;;13.50;99.90;;;12.93;100.00;97033.31;4914160;29;20420;-74
2023/04/28 09:38:23;;;;;;;22.27;7.67;;;13.60;99.90;;;13.02;100.00;97033.53;4913972;29;20500;-74
2023/04/28 09:40:52;;;;;;;16.42;6.95;;;13.70;99.90;;;13.22;100.00;97027.34;4913920;29;20417;-74
2023/04/28 09:43:29;;;;;;;15.93;6.47;;;13.90;99.90;;;13.42;100.00;97032.50;4914023;29;20421;-73
2023/04/28 09:45:59;;;;;;;11.52;5.38;;;14.10;99.90;;;13.66;100.00;97029.94;4914344;29;20401;-74
2023/04/28 09:48:31;;;;;;;10.60;5.20;;;14.30;99.90;;;13.72;100.00;97036.78;4914583;29;20444;-73
2023/04/28 09:50:58;;;;;;;8.90;4.88;;;14.40;99.90;;;13.85;100.00;97028.94;4928697;29;20410;-74
2023/04/28 09:53:26;;;;;;;7.20;3.95;;;14.50;99.90;;;13.99;100.00;97034.41;4914259;29;20975;-73
2023/04/28 09:55:54;;;;;;;5.38;3.80;;;14.60;99.90;;;14.12;100.00;97028.44;4914197;29;20421;-73
2023/04/28 09:58:22;;;;;;;5.32;3.47;;;14.80;99.90;;;14.31;100.00;97018.63;4918001;29;20420;-73
2023/04/28 10:00:55;;;;;;;3.92;3.00;;;15.00;99.90;;;14.41;100.00;97025.75;4917801;29;20503;-73
2023/04/28 10:03:23;;;;;;;4.15;2.70;;;15.10;99.90;;;14.65;100.00;97023.88;4916357;29;20433;-73
2023/04/28 10:05:51;;;;;;;4.13;2.50;;;15.30;99.90;;;14.67;100.00;97032.34;4917635;29;20417;-72